sensor_id;sensor_type;location;lat;lon;timestamp;temperature;humidity
74513;DHT22;62992;52.052;8.550;2023-06-04T00:01:26;10.70;99.90
74513;DHT22;62992;52.052;8.550;2023-06-04T00:04:11;10.70;99.90
74513;DHT22;62992;52.052;8.550;2023-06-04T00:06:55;10.60;99.90
74513;DHT22;62992;52.052;8.550;2023-06-04T00:09:39;10.60;99.90
74513;DHT22;62992;52.052;8.550;2023-06-04T00:12:23;10.50;99.90
74513;DHT22;62992;52.052;8.550;2023-06-04T00:15:07;10.50;99.90
74513;DHT22;62992;52.052;8.550;2023-06-04T00:17:51;10.40;99.90
74513;DHT22;62992;52.052;8.550;2023-06-04T00:20:36;10.40;99.90
74513;DHT22;62992;52.052;8.550;2023-06-04T00:23:20;10.40;99.90
74513;DHT22;62992;52.052;8.550;2023-06-04T00:26:04;10.20;99.90
74513;DHT22;62992;52.052;8.550;2023-06-04T00:28:48;10.20;99.90
74513;DHT22;62992;52.052;8.550;2023-06-04T00:31:32;10.20;99.90
74513;DHT22;62992;52.052;8.550;2023-06-04T00:34:17;10.30;99.90
74513;DHT22;62992;52.052;8.550;2023-06-04T00:37:01;10.30;99.90
74513;DHT22;62992;52.052;8.550;2023-06-04T00:39:45;10.20;99.90
74513;DHT22;62992;52.052;8.550;2023-06-04T00:42:30;10.10;99.90
74513;DHT22;62992;52.052;8.550;2023-06-04T00:45:14;10.10;99.90
74513;DHT22;62992;52.052;8.550;2023-06-04T00:48:02;10.10;99.90
74513;DHT22;62992;52.052;8.550;2023-06-04T00:50:46;10.10;99.90
74513;DHT22;62992;52.052;8.550;2023-06-04T00:53:31;10.10;99.90
74513;DHT22;62992;52.052;8.550;2023-06-04T00:56:15;10.10;99.90
74513;DHT22;62992;52.052;8.550;2023-06-04T00:58:59;10.10;99.90
74513;DHT22;62992;52.052;8.550;2023-06-04T01:04:39;10.00;99.90
74513;DHT22;62992;52.052;8.550;2023-06-04T01:07:26;10.00;99.90
74513;DHT22;62992;52.052;8.550;2023-06-04T01:10:12;10.00;99.90
74513;DHT22;62992;52.052;8.550;2023-06-04T01:12:56;10.00;99.90
74513;DHT22;62992;52.052;8.550;2023-06-04T01:15:40;10.00;99.90
74513;DHT22;62992;52.052;8.550;2023-06-04T01:18:28;10.00;99.90
74513;DHT22;62992;52.052;8.550;2023-06-04T01:21:13;10.00;99.90
74513;DHT22;62992;52.052;8.550;2023-06-04T01:24:02;10.00;99.90
74513;DHT22;62992;52.052;8.550;2023-06-04T01:26:48;10.00;99.90
74513;DHT22;62992;52.052;8.550;2023-06-04T01:29:33;10.00;99.90
74513;DHT22;62992;52.052;8.550;2023-06-04T01:32:19;10.10;99.90
74513;DHT22;62992;52.052;8.550;2023-06-04T01:35:07;10.00;99.90
74513;DHT22;62992;52.052;8.550;2023-06-04T01:37:51;10.00;99.90
74513;DHT22;62992;52.052;8.550;2023-06-04T01:40:35;10.00;99.90
74513;DHT22;62992;52.052;8.550;2023-06-04T01:43:19;10.00;99.90
74513;DHT22;62992;52.052;8.550;2023-06-04T01:46:04;9.90;99.90
74513;DHT22;62992;52.052;8.550;2023-06-04T01:48:48;9.80;99.90
74513;DHT22;62992;52.052;8.550;2023-06-04T01:51:33;9.80;99.90
74513;DHT22;62992;52.052;8.550;2023-06-04T01:54:17;9.70;99.90
74513;DHT22;62992;52.052;8.550;2023-06-04T01:57:01;9.80;99.90
74513;DHT22;62992;52.052;8.550;2023-06-04T01:59:47;9.70;99.90
74513;DHT22;62992;52.052;8.550;2023-06-04T02:02:31;9.70;99.90
74513;DHT22;62992;52.052;8.550;2023-06-04T02:05:15;9.60;99.90
74513;DHT22;62992;52.052;8.550;2023-06-04T02:07:59;9.60;99.90
74513;DHT22;62992;52.052;8.550;2023-06-04T02:10:48;9.60;99.90
74513;DHT22;62992;52.052;8.550;2023-06-04T02:13:32;9.50;99.90
74513;DHT22;62992;52.052;8.550;2023-06-04T02:16:16;9.70;99.90
74513;DHT22;62992;52.052;8.550;2023-06-04T02:19:00;9.60;99.90
74513;DHT22;62992;52.052;8.550;2023-06-04T02:21:45;9.60;99.90
74513;DHT22;62992;52.052;8.550;2023-06-04T02:24:29;9.50;99.90
74513;DHT22;62992;52.052;8.550;2023-06-04T02:27:13;9.60;99.90
74513;DHT22;62992;52.052;8.550;2023-06-04T02:29:58;9.60;99.90
74513;DHT22;62992;52.052;8.550;2023-06-04T02:32:42;9.60;99.90
74513;DHT22;62992;52.052;8.550;2023-06-04T02:35:28;9.60;99.90
74513;DHT22;62992;52.052;8.550;2023-06-04T02:38:12;9.60;99.90
74513;DHT22;62992;52.052;8.550;2023-06-04T02:40:56;9.60;99.90
74513;DHT22;62992;52.052;8.550;2023-06-04T02:43:40;9.60;99.90
74513;DHT22;62992;52.052;8.550;2023-06-04T02:46:25;9.60;99.90
74513;DHT22;62992;52.052;8.550;2023-06-04T02:49:09;9.50;99.90
74513;DHT22;62992;52.052;8.550;2023-06-04T02:51:53;9.40;99.90
74513;DHT22;62992;52.052;8.550;2023-06-04T02:54:37;9.30;99.90
74513;DHT22;62992;52.052;8.550;2023-06-04T02:57:21;9.30;99.90
74513;DHT22;62992;52.052;8.550;2023-06-04T03:00:06;9.40;99.90
74513;DHT22;62992;52.052;8.550;2023-06-04T03:02:56;9.30;99.90
74513;DHT22;62992;52.052;8.550;2023-06-04T03:05:44;9.30;99.90
74513;DHT22;62992;52.052;8.550;2023-06-04T03:08:29;9.40;99.90
74513;DHT22;62992;52.052;8.550;2023-06-04T03:11:14;9.30;99.90
74513;DHT22;62992;52.052;8.550;2023-06-04T03:13:58;9.20;99.90
74513;DHT22;62992;52.052;8.550;2023-06-04T03:16:42;9.20;99.90
74513;DHT22;62992;52.052;8.550;2023-06-04T03:19:28;9.20;99.90
74513;DHT22;62992;52.052;8.550;2023-06-04T03:22:12;9.30;99.90
74513;DHT22;62992;52.052;8.550;2023-06-04T03:24:57;9.30;99.90
74513;DHT22;62992;52.052;8.550;2023-06-04T03:27:41;9.30;99.90
74513;DHT22;62992;52.052;8.550;2023-06-04T03:30:25;9.30;99.90
74513;DHT22;62992;52.052;8.550;2023-06-04T03:33:09;9.30;99.90
74513;DHT22;62992;52.052;8.550;2023-06-04T03:35:53;9.20;99.90
74513;DHT22;62992;52.052;8.550;2023-06-04T03:38:41;9.10;99.90
74513;DHT22;62992;52.052;8.550;2023-06-04T03:41:25;9.10;99.90
74513;DHT22;62992;52.052;8.550;2023-06-04T03:44:12;9.10;99.90
74513;DHT22;62992;52.052;8.550;2023-06-04T03:46:56;9.00;99.90
74513;DHT22;62992;52.052;8.550;2023-06-04T03:49:40;9.00;99.90
74513;DHT22;62992;52.052;8.550;2023-06-04T03:52:24;9.00;99.90
74513;DHT22;62992;52.052;8.550;2023-06-04T03:55:09;9.00;99.90
74513;DHT22;62992;52.052;8.550;2023-06-04T03:57:54;9.20;99.90
74513;DHT22;62992;52.052;8.550;2023-06-04T04:00:38;9.20;99.90
74513;DHT22;62992;52.052;8.550;2023-06-04T04:03:23;9.10;99.90
74513;DHT22;62992;52.052;8.550;2023-06-04T04:06:07;9.10;99.90
74513;DHT22;62992;52.052;8.550;2023-06-04T04:08:51;9.10;99.90
74513;DHT22;62992;52.052;8.550;2023-06-04T04:11:35;9.10;99.90
74513;DHT22;62992;52.052;8.550;2023-06-04T04:14:19;9.10;99.90
74513;DHT22;62992;52.052;8.550;2023-06-04T04:17:03;9.20;99.90
74513;DHT22;62992;52.052;8.550;2023-06-04T04:19:47;9.30;99.90
74513;DHT22;62992;52.052;8.550;2023-06-04T04:22:32;9.50;99.90
74513;DHT22;62992;52.052;8.550;2023-06-04T04:25:16;9.50;99.90
74513;DHT22;62992;52.052;8.550;2023-06-04T04:28:01;9.50;99.90
74513;DHT22;62992;52.052;8.550;2023-06-04T04:30:46;9.60;99.90
74513;DHT22;62992;52.052;8.550;2023-06-04T04:33:31;9.60;99.90
74513;DHT22;62992;52.052;8.550;2023-06-04T04:36:23;9.60;99.90
74513;DHT22;62992;52.052;8.550;2023-06-04T04:39:07;9.70;99.90
74513;DHT22;62992;52.052;8.550;2023-06-04T04:41:52;9.70;99.90
74513;DHT22;62992;52.052;8.550;2023-06-04T04:44:36;9.80;99.90
74513;DHT22;62992;52.052;8.550;2023-06-04T04:47:20;9.80;99.90
74513;DHT22;62992;52.052;8.550;2023-06-04T04:50:05;9.90;99.90
74513;DHT22;62992;52.052;8.550;2023-06-04T04:52:49;9.90;99.90
74513;DHT22;62992;52.052;8.550;2023-06-04T04:55:33;10.00;99.90
74513;DHT22;62992;52.052;8.550;2023-06-04T04:58:17;10.10;99.90
74513;DHT22;62992;52.052;8.550;2023-06-04T05:01:02;10.20;99.90
74513;DHT22;62992;52.052;8.550;2023-06-04T05:03:46;10.40;99.90
74513;DHT22;62992;52.052;8.550;2023-06-04T05:06:30;10.50;99.90
74513;DHT22;62992;52.052;8.550;2023-06-04T05:09:14;10.60;99.90
74513;DHT22;62992;52.052;8.550;2023-06-04T05:11:59;10.80;99.90
74513;DHT22;62992;52.052;8.550;2023-06-04T05:14:44;10.90;99.90
74513;DHT22;62992;52.052;8.550;2023-06-04T05:17:28;11.10;99.90
74513;DHT22;62992;52.052;8.550;2023-06-04T05:20:14;11.40;99.90
74513;DHT22;62992;52.052;8.550;2023-06-04T05:22:59;11.60;99.90
74513;DHT22;62992;52.052;8.550;2023-06-04T05:25:43;11.80;99.90
74513;DHT22;62992;52.052;8.550;2023-06-04T05:28:27;12.00;99.90
74513;DHT22;62992;52.052;8.550;2023-06-04T05:31:11;12.30;99.90
74513;DHT22;62992;52.052;8.550;2023-06-04T05:33:57;12.60;99.90
74513;DHT22;62992;52.052;8.550;2023-06-04T05:36:41;13.00;99.90
74513;DHT22;62992;52.052;8.550;2023-06-04T05:39:25;13.20;99.90
74513;DHT22;62992;52.052;8.550;2023-06-04T05:42:09;13.60;99.90
74513;DHT22;62992;52.052;8.550;2023-06-04T05:44:53;13.90;99.90
74513;DHT22;62992;52.052;8.550;2023-06-04T05:47:38;14.30;99.90
74513;DHT22;62992;52.052;8.550;2023-06-04T05:50:22;14.70;99.90
74513;DHT22;62992;52.052;8.550;2023-06-04T05:53:06;15.10;99.90
74513;DHT22;62992;52.052;8.550;2023-06-04T05:55:50;15.30;99.90
74513;DHT22;62992;52.052;8.550;2023-06-04T05:58:34;15.80;99.90
74513;DHT22;62992;52.052;8.550;2023-06-04T06:01:18;16.30;99.90
74513;DHT22;62992;52.052;8.550;2023-06-04T06:04:03;16.90;99.90
74513;DHT22;62992;52.052;8.550;2023-06-04T06:06:47;17.40;99.90
74513;DHT22;62992;52.052;8.550;2023-06-04T06:09:32;17.90;98.40
74513;DHT22;62992;52.052;8.550;2023-06-04T06:12:16;18.60;98.00
74513;DHT22;62992;52.052;8.550;2023-06-04T06:15:00;19.30;96.80
74513;DHT22;62992;52.052;8.550;2023-06-04T06:17:45;19.90;95.60
74513;DHT22;62992;52.052;8.550;2023-06-04T06:20:29;20.50;93.40
74513;DHT22;62992;52.052;8.550;2023-06-04T06:23:13;20.60;93.30
74513;DHT22;62992;52.052;8.550;2023-06-04T06:25:57;20.90;92.80
74513;DHT22;62992;52.052;8.550;2023-06-04T06:28:45;21.10;91.10
74513;DHT22;62992;52.052;8.550;2023-06-04T06:31:29;21.50;91.90
74513;DHT22;62992;52.052;8.550;2023-06-04T06:34:13;21.70;91.20
74513;DHT22;62992;52.052;8.550;2023-06-04T06:36:57;21.80;90.20
74513;DHT22;62992;52.052;8.550;2023-06-04T06:39:41;22.00;90.00
74513;DHT22;62992;52.052;8.550;2023-06-04T06:42:26;22.00;88.30
74513;DHT22;62992;52.052;8.550;2023-06-04T06:45:10;22.20;87.00
74513;DHT22;62992;52.052;8.550;2023-06-04T06:47:54;22.20;91.70
74513;DHT22;62992;52.052;8.550;2023-06-04T06:50:38;22.30;91.90
74513;DHT22;62992;52.052;8.550;2023-06-04T06:53:23;22.20;95.50
74513;DHT22;62992;52.052;8.550;2023-06-04T06:56:07;22.30;95.10
74513;DHT22;62992;52.052;8.550;2023-06-04T06:58:51;22.60;92.70
74513;DHT22;62992;52.052;8.550;2023-06-04T07:01:35;22.40;94.60
74513;DHT22;62992;52.052;8.550;2023-06-04T07:04:20;22.60;95.10
74513;DHT22;62992;52.052;8.550;2023-06-04T07:07:04;22.70;93.10
74513;DHT22;62992;52.052;8.550;2023-06-04T07:09:49;22.80;92.60
74513;DHT22;62992;52.052;8.550;2023-06-04T07:12:34;22.80;93.10
74513;DHT22;62992;52.052;8.550;2023-06-04T07:15:18;23.00;87.10
74513;DHT22;62992;52.052;8.550;2023-06-04T07:18:02;23.40;90.90
74513;DHT22;62992;52.052;8.550;2023-06-04T07:20:47;23.30;89.30
74513;DHT22;62992;52.052;8.550;2023-06-04T07:23:31;23.50;88.10
74513;DHT22;62992;52.052;8.550;2023-06-04T07:26:15;23.70;89.40
74513;DHT22;62992;52.052;8.550;2023-06-04T07:29:00;23.70;90.30
74513;DHT22;62992;52.052;8.550;2023-06-04T07:31:44;24.00;91.20
74513;DHT22;62992;52.052;8.550;2023-06-04T07:34:29;23.80;91.00
74513;DHT22;62992;52.052;8.550;2023-06-04T07:37:13;24.00;84.90
74513;DHT22;62992;52.052;8.550;2023-06-04T07:39:59;24.00;85.50
74513;DHT22;62992;52.052;8.550;2023-06-04T07:42:44;24.10;89.80
74513;DHT22;62992;52.052;8.550;2023-06-04T07:45:28;24.30;88.50
74513;DHT22;62992;52.052;8.550;2023-06-04T07:48:14;23.80;82.90
74513;DHT22;62992;52.052;8.550;2023-06-04T07:51:02;24.20;88.10
74513;DHT22;62992;52.052;8.550;2023-06-04T07:53:47;24.50;85.20
74513;DHT22;62992;52.052;8.550;2023-06-04T07:56:31;24.70;82.40
74513;DHT22;62992;52.052;8.550;2023-06-04T07:59:15;25.10;84.30
74513;DHT22;62992;52.052;8.550;2023-06-04T08:01:59;25.00;83.10
74513;DHT22;62992;52.052;8.550;2023-06-04T08:04:44;24.40;79.00
74513;DHT22;62992;52.052;8.550;2023-06-04T08:07:29;24.60;82.20
74513;DHT22;62992;52.052;8.550;2023-06-04T08:10:13;24.90;81.70
74513;DHT22;62992;52.052;8.550;2023-06-04T08:12:57;24.30;78.70
74513;DHT22;62992;52.052;8.550;2023-06-04T08:15:41;24.00;81.00
74513;DHT22;62992;52.052;8.550;2023-06-04T08:18:26;24.40;80.60
74513;DHT22;62992;52.052;8.550;2023-06-04T08:21:10;24.10;81.60
74513;DHT22;62992;52.052;8.550;2023-06-04T08:23:55;24.20;80.90
74513;DHT22;62992;52.052;8.550;2023-06-04T08:26:39;24.70;78.00
74513;DHT22;62992;52.052;8.550;2023-06-04T08:29:23;25.00;76.70
74513;DHT22;62992;52.052;8.550;2023-06-04T08:32:07;24.80;79.20
74513;DHT22;62992;52.052;8.550;2023-06-04T08:34:52;24.20;79.00
74513;DHT22;62992;52.052;8.550;2023-06-04T08:37:36;24.90;82.70
74513;DHT22;62992;52.052;8.550;2023-06-04T08:40:20;25.00;80.00
74513;DHT22;62992;52.052;8.550;2023-06-04T08:43:05;25.00;79.00
74513;DHT22;62992;52.052;8.550;2023-06-04T08:45:50;25.10;76.60
74513;DHT22;62992;52.052;8.550;2023-06-04T08:48:37;25.10;73.90
74513;DHT22;62992;52.052;8.550;2023-06-04T08:51:21;24.40;74.70
74513;DHT22;62992;52.052;8.550;2023-06-04T08:54:06;23.50;76.10
74513;DHT22;62992;52.052;8.550;2023-06-04T08:56:50;23.60;78.40
74513;DHT22;62992;52.052;8.550;2023-06-04T08:59:35;23.80;76.70
74513;DHT22;62992;52.052;8.550;2023-06-04T09:02:20;23.00;77.90
74513;DHT22;62992;52.052;8.550;2023-06-04T09:05:04;23.40;78.40
74513;DHT22;62992;52.052;8.550;2023-06-04T09:07:52;23.60;75.60
74513;DHT22;62992;52.052;8.550;2023-06-04T09:10:37;24.00;77.40
74513;DHT22;62992;52.052;8.550;2023-06-04T09:13:22;23.70;73.10
74513;DHT22;62992;52.052;8.550;2023-06-04T09:16:06;23.80;74.00
74513;DHT22;62992;52.052;8.550;2023-06-04T09:18:51;23.90;74.30
74513;DHT22;62992;52.052;8.550;2023-06-04T09:21:45;23.80;73.80
74513;DHT22;62992;52.052;8.550;2023-06-04T09:24:45;23.90;73.60
74513;DHT22;62992;52.052;8.550;2023-06-04T09:27:37;24.00;74.80
74513;DHT22;62992;52.052;8.550;2023-06-04T09:30:21;23.70;71.60
74513;DHT22;62992;52.052;8.550;2023-06-04T09:33:06;23.60;72.10
74513;DHT22;62992;52.052;8.550;2023-06-04T09:35:54;23.70;74.30
74513;DHT22;62992;52.052;8.550;2023-06-04T09:38:39;23.90;76.30
74513;DHT22;62992;52.052;8.550;2023-06-04T09:41:23;23.80;72.10
74513;DHT22;62992;52.052;8.550;2023-06-04T09:44:08;24.20;73.90
74513;DHT22;62992;52.052;8.550;2023-06-04T09:46:57;24.00;71.60
74513;DHT22;62992;52.052;8.550;2023-06-04T09:49:41;23.70;69.80
74513;DHT22;62992;52.052;8.550;2023-06-04T09:52:32;24.00;73.80
74513;DHT22;62992;52.052;8.550;2023-06-04T09:55:16;24.00;72.50
74513;DHT22;62992;52.052;8.550;2023-06-04T09:58:06;23.60;70.40
74513;DHT22;62992;52.052;8.550;2023-06-04T10:00:50;24.10;71.20
74513;DHT22;62992;52.052;8.550;2023-06-04T10:03:36;24.30;73.70
74513;DHT22;62992;52.052;8.550;2023-06-04T10:06:20;24.10;73.90
74513;DHT22;62992;52.052;8.550;2023-06-04T10:09:06;24.20;72.20
74513;DHT22;62992;52.052;8.550;2023-06-04T10:11:53;23.30;73.70
74513;DHT22;62992;52.052;8.550;2023-06-04T10:15:02;22.80;76.10
74513;DHT22;62992;52.052;8.550;2023-06-04T10:17:44;23.60;78.40
74513;DHT22;62992;52.052;8.550;2023-06-04T10:20:31;23.90;73.00
74513;DHT22;62992;52.052;8.550;2023-06-04T10:23:15;23.90;73.70
74513;DHT22;62992;52.052;8.550;2023-06-04T10:26:01;23.90;72.90
74513;DHT22;62992;52.052;8.550;2023-06-04T10:28:46;24.10;71.70
74513;DHT22;62992;52.052;8.550;2023-06-04T10:31:30;24.00;73.70
74513;DHT22;62992;52.052;8.550;2023-06-04T10:34:15;24.30;68.90
74513;DHT22;62992;52.052;8.550;2023-06-04T10:37:00;23.80;69.50
74513;DHT22;62992;52.052;8.550;2023-06-04T10:39:50;24.20;72.00
74513;DHT22;62992;52.052;8.550;2023-06-04T10:42:41;24.30;72.40
74513;DHT22;62992;52.052;8.550;2023-06-04T10:45:28;24.00;69.30
74513;DHT22;62992;52.052;8.550;2023-06-04T10:48:13;24.10;70.90
74513;DHT22;62992;52.052;8.550;2023-06-04T10:50:57;23.70;68.90
74513;DHT22;62992;52.052;8.550;2023-06-04T10:53:42;23.80;71.20
74513;DHT22;62992;52.052;8.550;2023-06-04T10:56:26;24.00;70.30
74513;DHT22;62992;52.052;8.550;2023-06-04T10:59:15;24.00;69.50
74513;DHT22;62992;52.052;8.550;2023-06-04T11:02:06;23.80;71.00
74513;DHT22;62992;52.052;8.550;2023-06-04T11:05:00;24.00;69.30
74513;DHT22;62992;52.052;8.550;2023-06-04T11:07:50;23.90;67.70
74513;DHT22;62992;52.052;8.550;2023-06-04T11:10:35;24.00;71.80
74513;DHT22;62992;52.052;8.550;2023-06-04T11:13:23;23.40;69.70
74513;DHT22;62992;52.052;8.550;2023-06-04T11:16:14;23.70;70.30
74513;DHT22;62992;52.052;8.550;2023-06-04T11:18:59;24.00;71.70
74513;DHT22;62992;52.052;8.550;2023-06-04T11:21:44;24.20;71.40
74513;DHT22;62992;52.052;8.550;2023-06-04T11:24:28;23.50;71.40
74513;DHT22;62992;52.052;8.550;2023-06-04T11:27:13;23.70;74.50
74513;DHT22;62992;52.052;8.550;2023-06-04T11:29:57;24.00;73.40
74513;DHT22;62992;52.052;8.550;2023-06-04T11:32:41;23.30;68.60
74513;DHT22;62992;52.052;8.550;2023-06-04T11:35:26;23.90;73.90
74513;DHT22;62992;52.052;8.550;2023-06-04T11:38:10;24.30;72.10
74513;DHT22;62992;52.052;8.550;2023-06-04T11:40:55;24.00;70.70
74513;DHT22;62992;52.052;8.550;2023-06-04T11:43:40;24.00;71.60
74513;DHT22;62992;52.052;8.550;2023-06-04T11:46:27;23.90;69.90
74513;DHT22;62992;52.052;8.550;2023-06-04T11:49:11;23.90;69.70
74513;DHT22;62992;52.052;8.550;2023-06-04T11:51:58;23.90;72.30
74513;DHT22;62992;52.052;8.550;2023-06-04T11:54:42;23.50;71.10
74513;DHT22;62992;52.052;8.550;2023-06-04T11:57:26;23.70;70.50
74513;DHT22;62992;52.052;8.550;2023-06-04T12:00:10;23.70;73.00
74513;DHT22;62992;52.052;8.550;2023-06-04T12:02:56;23.80;70.20
74513;DHT22;62992;52.052;8.550;2023-06-04T12:05:40;24.20;73.10
74513;DHT22;62992;52.052;8.550;2023-06-04T12:08:25;24.00;71.90
74513;DHT22;62992;52.052;8.550;2023-06-04T12:11:09;23.70;71.80
74513;DHT22;62992;52.052;8.550;2023-06-04T12:13:57;23.70;73.00
74513;DHT22;62992;52.052;8.550;2023-06-04T12:16:41;24.00;70.50
74513;DHT22;62992;52.052;8.550;2023-06-04T12:19:26;23.70;69.20
74513;DHT22;62992;52.052;8.550;2023-06-04T12:22:10;23.60;71.60
74513;DHT22;62992;52.052;8.550;2023-06-04T12:24:55;23.70;70.90
74513;DHT22;62992;52.052;8.550;2023-06-04T12:27:46;22.50;69.40
74513;DHT22;62992;52.052;8.550;2023-06-04T12:30:38;22.80;73.10
74513;DHT22;62992;52.052;8.550;2023-06-04T12:33:23;22.80;70.00
74513;DHT22;62992;52.052;8.550;2023-06-04T12:36:07;23.00;73.40
74513;DHT22;62992;52.052;8.550;2023-06-04T12:38:51;23.20;72.00
74513;DHT22;62992;52.052;8.550;2023-06-04T12:41:36;23.40;71.90
74513;DHT22;62992;52.052;8.550;2023-06-04T12:44:20;23.20;70.80
74513;DHT22;62992;52.052;8.550;2023-06-04T12:47:05;23.40;70.50
74513;DHT22;62992;52.052;8.550;2023-06-04T12:49:49;23.50;72.10
74513;DHT22;62992;52.052;8.550;2023-06-04T12:52:33;23.60;69.30
74513;DHT22;62992;52.052;8.550;2023-06-04T12:55:18;23.60;70.30
74513;DHT22;62992;52.052;8.550;2023-06-04T12:58:02;23.30;70.40
74513;DHT22;62992;52.052;8.550;2023-06-04T13:00:46;23.10;71.60
74513;DHT22;62992;52.052;8.550;2023-06-04T13:03:30;23.40;70.90
74513;DHT22;62992;52.052;8.550;2023-06-04T13:06:14;23.00;70.30
74513;DHT22;62992;52.052;8.550;2023-06-04T13:08:58;23.20;74.50
74513;DHT22;62992;52.052;8.550;2023-06-04T13:11:43;23.30;71.90
74513;DHT22;62992;52.052;8.550;2023-06-04T13:14:27;23.20;70.50
74513;DHT22;62992;52.052;8.550;2023-06-04T13:17:14;22.90;70.90
74513;DHT22;62992;52.052;8.550;2023-06-04T13:19:58;23.20;70.90
74513;DHT22;62992;52.052;8.550;2023-06-04T13:22:42;23.20;71.30
74513;DHT22;62992;52.052;8.550;2023-06-04T13:25:27;23.10;70.80
74513;DHT22;62992;52.052;8.550;2023-06-04T13:28:16;22.90;70.80
74513;DHT22;62992;52.052;8.550;2023-06-04T13:31:01;23.00;71.30
74513;DHT22;62992;52.052;8.550;2023-06-04T13:33:45;22.90;70.70
74513;DHT22;62992;52.052;8.550;2023-06-04T13:36:29;23.20;72.00
74513;DHT22;62992;52.052;8.550;2023-06-04T13:39:13;23.10;69.60
74513;DHT22;62992;52.052;8.550;2023-06-04T13:41:58;22.90;70.80
74513;DHT22;62992;52.052;8.550;2023-06-04T13:44:42;22.60;69.80
74513;DHT22;62992;52.052;8.550;2023-06-04T13:47:26;22.60;70.10
74513;DHT22;62992;52.052;8.550;2023-06-04T13:50:10;22.60;68.30
74513;DHT22;62992;52.052;8.550;2023-06-04T13:52:54;22.40;68.90
74513;DHT22;62992;52.052;8.550;2023-06-04T13:55:39;22.50;70.30
74513;DHT22;62992;52.052;8.550;2023-06-04T13:58:23;22.50;67.70
74513;DHT22;62992;52.052;8.550;2023-06-04T14:01:07;22.40;70.90
74513;DHT22;62992;52.052;8.550;2023-06-04T14:03:52;22.50;70.90
74513;DHT22;62992;52.052;8.550;2023-06-04T14:06:36;22.70;72.60
74513;DHT22;62992;52.052;8.550;2023-06-04T14:09:21;23.10;69.70
74513;DHT22;62992;52.052;8.550;2023-06-04T14:12:05;22.70;68.40
74513;DHT22;62992;52.052;8.550;2023-06-04T14:14:50;22.70;70.50
74513;DHT22;62992;52.052;8.550;2023-06-04T14:17:34;22.60;70.90
74513;DHT22;62992;52.052;8.550;2023-06-04T14:20:18;22.60;71.00
74513;DHT22;62992;52.052;8.550;2023-06-04T14:23:03;22.70;70.70
74513;DHT22;62992;52.052;8.550;2023-06-04T14:25:47;22.60;69.00
74513;DHT22;62992;52.052;8.550;2023-06-04T14:28:31;22.50;67.90
74513;DHT22;62992;52.052;8.550;2023-06-04T14:31:15;22.60;70.40
74513;DHT22;62992;52.052;8.550;2023-06-04T14:34:00;22.60;68.20
74513;DHT22;62992;52.052;8.550;2023-06-04T14:36:45;22.60;70.30
74513;DHT22;62992;52.052;8.550;2023-06-04T14:39:29;22.80;69.30
74513;DHT22;62992;52.052;8.550;2023-06-04T14:42:15;22.60;68.10
74513;DHT22;62992;52.052;8.550;2023-06-04T14:45:00;22.50;67.80
74513;DHT22;62992;52.052;8.550;2023-06-04T14:47:44;22.30;68.30
74513;DHT22;62992;52.052;8.550;2023-06-04T14:50:28;22.30;68.90
74513;DHT22;62992;52.052;8.550;2023-06-04T14:53:12;22.30;69.80
74513;DHT22;62992;52.052;8.550;2023-06-04T14:55:56;22.40;69.70
74513;DHT22;62992;52.052;8.550;2023-06-04T14:58:41;22.40;67.90
74513;DHT22;62992;52.052;8.550;2023-06-04T15:01:25;22.50;69.20
74513;DHT22;62992;52.052;8.550;2023-06-04T15:04:09;22.40;68.30
74513;DHT22;62992;52.052;8.550;2023-06-04T15:06:53;22.40;68.20
74513;DHT22;62992;52.052;8.550;2023-06-04T15:09:37;22.30;68.10
74513;DHT22;62992;52.052;8.550;2023-06-04T15:12:21;22.30;69.40
74513;DHT22;62992;52.052;8.550;2023-06-04T15:15:06;22.30;69.90
74513;DHT22;62992;52.052;8.550;2023-06-04T15:17:51;22.40;69.30
74513;DHT22;62992;52.052;8.550;2023-06-04T15:20:35;22.30;68.90
74513;DHT22;62992;52.052;8.550;2023-06-04T15:23:19;22.20;67.90
74513;DHT22;62992;52.052;8.550;2023-06-04T15:26:03;22.10;70.00
74513;DHT22;62992;52.052;8.550;2023-06-04T15:28:48;22.20;70.00
74513;DHT22;62992;52.052;8.550;2023-06-04T15:31:32;22.00;67.60
74513;DHT22;62992;52.052;8.550;2023-06-04T15:34:16;21.80;69.00
74513;DHT22;62992;52.052;8.550;2023-06-04T15:37:00;21.90;70.00
74513;DHT22;62992;52.052;8.550;2023-06-04T15:39:44;22.00;70.30
74513;DHT22;62992;52.052;8.550;2023-06-04T15:42:28;22.20;71.20
74513;DHT22;62992;52.052;8.550;2023-06-04T15:45:12;22.10;67.90
74513;DHT22;62992;52.052;8.550;2023-06-04T15:47:57;22.00;68.60
74513;DHT22;62992;52.052;8.550;2023-06-04T15:50:41;22.00;69.30
74513;DHT22;62992;52.052;8.550;2023-06-04T15:53:25;22.00;68.80
74513;DHT22;62992;52.052;8.550;2023-06-04T15:56:09;21.90;67.90
74513;DHT22;62992;52.052;8.550;2023-06-04T15:58:53;21.90;69.60
74513;DHT22;62992;52.052;8.550;2023-06-04T16:01:38;21.80;68.50
74513;DHT22;62992;52.052;8.550;2023-06-04T16:04:26;21.90;68.70
74513;DHT22;62992;52.052;8.550;2023-06-04T16:07:10;21.90;69.30
74513;DHT22;62992;52.052;8.550;2023-06-04T16:09:54;21.80;68.60
74513;DHT22;62992;52.052;8.550;2023-06-04T16:12:39;21.90;68.90
74513;DHT22;62992;52.052;8.550;2023-06-04T16:15:23;21.90;69.90
74513;DHT22;62992;52.052;8.550;2023-06-04T16:18:08;21.80;70.40
74513;DHT22;62992;52.052;8.550;2023-06-04T16:20:52;21.80;70.70
74513;DHT22;62992;52.052;8.550;2023-06-04T16:23:36;21.80;71.50
74513;DHT22;62992;52.052;8.550;2023-06-04T16:26:20;21.80;71.10
74513;DHT22;62992;52.052;8.550;2023-06-04T16:29:05;21.80;71.80
74513;DHT22;62992;52.052;8.550;2023-06-04T16:31:50;21.90;73.00
74513;DHT22;62992;52.052;8.550;2023-06-04T16:34:34;21.70;71.60
74513;DHT22;62992;52.052;8.550;2023-06-04T16:37:18;21.60;71.20
74513;DHT22;62992;52.052;8.550;2023-06-04T16:40:02;21.70;72.70
74513;DHT22;62992;52.052;8.550;2023-06-04T16:42:47;21.60;72.40
74513;DHT22;62992;52.052;8.550;2023-06-04T16:45:31;21.60;72.40
74513;DHT22;62992;52.052;8.550;2023-06-04T16:48:15;21.60;74.00
74513;DHT22;62992;52.052;8.550;2023-06-04T16:51:00;21.60;72.80
74513;DHT22;62992;52.052;8.550;2023-06-04T16:53:44;21.50;71.90
74513;DHT22;62992;52.052;8.550;2023-06-04T16:56:28;21.50;72.60
74513;DHT22;62992;52.052;8.550;2023-06-04T16:59:12;21.50;74.00
74513;DHT22;62992;52.052;8.550;2023-06-04T17:01:57;21.40;73.20
74513;DHT22;62992;52.052;8.550;2023-06-04T17:04:42;21.40;74.00
74513;DHT22;62992;52.052;8.550;2023-06-04T17:07:27;21.40;73.80
74513;DHT22;62992;52.052;8.550;2023-06-04T17:10:12;21.40;74.10
74513;DHT22;62992;52.052;8.550;2023-06-04T17:12:56;21.30;74.10
74513;DHT22;62992;52.052;8.550;2023-06-04T17:15:40;21.40;74.10
74513;DHT22;62992;52.052;8.550;2023-06-04T17:18:24;21.30;74.70
74513;DHT22;62992;52.052;8.550;2023-06-04T17:21:08;21.30;76.30
74513;DHT22;62992;52.052;8.550;2023-06-04T17:23:54;21.30;74.80
74513;DHT22;62992;52.052;8.550;2023-06-04T17:26:38;21.20;75.80